createdAt,value
2022-07-29T00:02:23.687Z,47.15
2022-07-29T00:04:53.922Z,46.90
2022-07-29T00:07:24.370Z,47.41
2022-07-29T00:09:54.854Z,47.55
2022-07-29T00:12:27.002Z,47.84
2022-07-29T00:15:00.878Z,47.68
2022-07-29T00:17:30.918Z,47.78
2022-07-29T00:20:01.069Z,48.10
2022-07-29T00:22:31.162Z,48.18
2022-07-29T00:25:01.378Z,48.37
2022-07-29T00:27:31.524Z,47.80
2022-07-29T00:30:04.540Z,47.88
2022-07-29T00:32:34.903Z,47.68
2022-07-29T00:35:17.416Z,47.83
2022-07-29T00:37:48.013Z,47.67
2022-07-29T00:40:18.396Z,47.54
2022-07-29T00:42:55.666Z,48.20
2022-07-29T00:45:28.361Z,48.22
2022-07-29T00:47:58.500Z,48.15
2022-07-29T00:50:28.775Z,47.87
2022-07-29T00:52:59.132Z,48.17
2022-07-29T00:55:29.470Z,47.70
2022-07-29T00:58:01.585Z,47.28
2022-07-29T01:00:37.765Z,46.78
2022-07-29T01:03:08.126Z,46.40
2022-07-29T01:05:50.788Z,46.59
2022-07-29T01:08:24.115Z,46.66
2022-07-29T01:10:55.083Z,46.18
2022-07-29T01:13:26.763Z,46.29
2022-07-29T01:16:07.403Z,45.80
2022-07-29T01:18:41.760Z,45.99
2022-07-29T01:21:31.507Z,46.04
2022-07-29T01:24:19.565Z,45.75
2022-07-29T01:26:52.086Z,45.93
2022-07-29T01:29:38.493Z,45.69
2022-07-29T01:32:27.694Z,45.98
2022-07-29T01:35:07.313Z,45.94
2022-07-29T01:37:43.651Z,45.89
2022-07-29T01:40:20.937Z,45.78
2022-07-29T01:42:56.253Z,46.32
2022-07-29T01:45:35.792Z,45.93
2022-07-29T01:48:10.939Z,46.56
2022-07-29T01:50:48.221Z,46.39
2022-07-29T01:53:24.578Z,46.38
2022-07-29T01:55:56.804Z,46.08
2022-07-29T01:58:31.067Z,46.14
2022-07-29T02:01:05.640Z,46.42
2022-07-29T02:03:36.853Z,46.99
2022-07-29T02:06:10.889Z,46.91
2022-07-29T02:08:42.658Z,46.97
2022-07-29T02:11:13.146Z,47.10
2022-07-29T02:13:45.082Z,47.26
2022-07-29T02:16:21.592Z,48.07
2022-07-29T02:18:54.397Z,47.76
2022-07-29T02:21:29.185Z,48.37
2022-07-29T02:24:03.361Z,48.05
2022-07-29T02:26:36.379Z,48.08
2022-07-29T02:29:06.610Z,47.94
2022-07-29T02:31:40.876Z,47.99
2022-07-29T02:34:13.804Z,47.99
2022-07-29T02:36:49.914Z,48.04
2022-07-29T02:39:21.160Z,47.95
2022-07-29T02:41:53.002Z,48.38
2022-07-29T02:44:25.394Z,48.64
2022-07-29T02:47:08.196Z,48.90
2022-07-29T02:49:41.163Z,49.22
2022-07-29T02:52:16.511Z,49.28
2022-07-29T02:54:54.530Z,49.21
2022-07-29T02:57:27.575Z,49.25
2022-07-29T03:00:04.272Z,49.65
2022-07-29T03:02:41.854Z,50.12
2022-07-29T03:05:16.935Z,50.19
2022-07-29T03:07:51.390Z,50.52
2022-07-29T03:10:23.127Z,50.26
2022-07-29T03:12:54.256Z,50.60
2022-07-29T03:15:28.462Z,50.83
2022-07-29T03:18:04.732Z,50.21
2022-07-29T03:20:34.939Z,50.54
2022-07-29T03:23:05.550Z,50.58
2022-07-29T03:25:35.735Z,50.46
2022-07-29T03:28:06.036Z,50.52
2022-07-29T03:30:36.277Z,50.24
2022-07-29T03:33:13.430Z,49.94
2022-07-29T03:35:44.363Z,50.20
2022-07-29T03:38:14.656Z,49.96
2022-07-29T03:40:50.553Z,50.22
2022-07-29T03:43:22.497Z,50.27
2022-07-29T03:45:55.724Z,49.87
2022-07-29T03:48:30.535Z,49.98
2022-07-29T03:51:00.985Z,50.12
2022-07-29T03:53:31.278Z,49.37
2022-07-29T03:56:05.879Z,49.48
2022-07-29T03:58:36.790Z,49.01
2022-07-29T04:01:07.173Z,48.30
2022-07-29T04:03:40.623Z,48.38
2022-07-29T04:06:11.202Z,48.05
2022-07-29T04:08:42.002Z,48.07
2022-07-29T04:11:12.317Z,48.31
2022-07-29T04:13:42.634Z,48.00
2022-07-29T04:16:12.785Z,46.94
2022-07-29T04:18:46.193Z,47.65
2022-07-29T04:21:16.292Z,46.84
2022-07-29T04:23:53.280Z,47.21
2022-07-29T04:26:24.716Z,47.18
2022-07-29T04:28:54.872Z,46.83
2022-07-29T04:31:25.963Z,46.63
2022-07-29T04:33:58.910Z,45.38
2022-07-29T04:36:30.093Z,44.52
2022-07-29T04:39:00.424Z,44.00
2022-07-29T04:41:32.974Z,43.49
2022-07-29T04:44:07.122Z,40.62
2022-07-29T04:46:37.731Z,38.08
2022-07-29T04:49:10.819Z,35.70
2022-07-29T04:51:40.979Z,34.81
2022-07-29T04:54:11.175Z,34.10
2022-07-29T04:56:41.287Z,33.03
2022-07-29T04:59:14.206Z,32.14
2022-07-29T05:01:44.474Z,31.54
2022-07-29T05:04:17.618Z,31.37
2022-07-29T05:06:47.777Z,30.92
2022-07-29T05:09:18.546Z,30.33
2022-07-29T05:11:48.666Z,29.92
2022-07-29T05:14:19.063Z,29.81
2022-07-29T05:16:52.159Z,29.54
2022-07-29T05:19:24.910Z,29.75
2022-07-29T05:21:55.099Z,29.20
2022-07-29T05:24:25.298Z,30.04
2022-07-29T05:27:00.794Z,29.50
2022-07-29T05:29:44.127Z,29.69
2022-07-29T05:32:15.451Z,30.39
2022-07-29T05:34:51.439Z,31.28
2022-07-29T05:37:22.839Z,31.66
2022-07-29T05:39:56.963Z,31.54
2022-07-29T05:42:27.800Z,31.34
2022-07-29T05:44:58.117Z,31.83
2022-07-29T05:47:28.521Z,32.05
2022-07-29T05:50:01.482Z,32.38
2022-07-29T05:52:31.717Z,32.85
2022-07-29T05:55:05.469Z,33.34
2022-07-29T05:57:36.178Z,33.20
2022-07-29T06:00:07.868Z,31.91
2022-07-29T06:02:39.225Z,31.39
2022-07-29T06:05:16.302Z,32.76
2022-07-29T06:07:50.130Z,32.96
2022-07-29T06:10:23.943Z,33.02
2022-07-29T06:12:57.765Z,33.03
2022-07-29T06:15:27.833Z,33.07
2022-07-29T06:18:00.050Z,33.98
2022-07-29T06:20:34.254Z,34.45
2022-07-29T06:23:06.852Z,34.58
2022-07-29T06:25:37.875Z,34.90
2022-07-29T06:28:08.334Z,34.67
2022-07-29T06:30:38.702Z,34.20
2022-07-29T06:33:09.512Z,34.63
2022-07-29T06:35:51.612Z,33.89
2022-07-29T06:38:30.897Z,32.74
2022-07-29T06:41:04.999Z,32.48
2022-07-29T06:43:51.865Z,32.14
2022-07-29T06:46:24.252Z,31.09
2022-07-29T06:48:55.850Z,30.45
2022-07-29T06:51:28.647Z,29.67
2022-07-29T06:54:02.476Z,30.43
2022-07-29T06:56:38.873Z,31.10
2022-07-29T06:59:10.586Z,30.19
2022-07-29T07:01:41.519Z,29.66
2022-07-29T07:04:12.645Z,30.26
2022-07-29T07:06:45.529Z,30.19
2022-07-29T07:09:15.870Z,29.83
2022-07-29T07:11:46.255Z,29.97
2022-07-29T07:14:20.535Z,31.06
2022-07-29T07:16:52.710Z,31.31
2022-07-29T07:19:24.885Z,32.21
2022-07-29T07:21:57.638Z,31.17
2022-07-29T07:24:27.921Z,30.91
2022-07-29T07:26:58.135Z,30.50
2022-07-29T07:29:28.430Z,30.48
2022-07-29T07:32:00.980Z,30.43
2022-07-29T07:34:31.589Z,30.77
2022-07-29T07:37:04.543Z,30.31
2022-07-29T07:39:36.847Z,30.14
2022-07-29T07:42:07.203Z,30.02
2022-07-29T07:44:57.320Z,30.55
2022-07-29T07:47:28.094Z,30.19
2022-07-29T07:49:58.935Z,30.40
2022-07-29T07:52:31.794Z,30.66
2022-07-29T07:55:02.221Z,31.13
2022-07-29T07:57:32.752Z,31.05
2022-07-29T08:00:02.838Z,30.92
2022-07-29T08:02:34.178Z,30.65
2022-07-29T08:05:04.452Z,29.28
2022-07-29T08:07:37.186Z,30.02
2022-07-29T08:10:08.562Z,29.31
2022-07-29T08:12:38.815Z,28.33
2022-07-29T08:15:11.138Z,29.10
2022-07-29T08:17:42.483Z,28.48
2022-07-29T08:20:14.318Z,27.46
2022-07-29T08:22:47.052Z,27.22
2022-07-29T08:25:19.078Z,26.97
2022-07-29T08:27:49.195Z,25.26
2022-07-29T08:30:19.580Z,25.21
2022-07-29T08:32:55.099Z,26.08
2022-07-29T08:35:27.934Z,26.07
2022-07-29T08:38:04.558Z,25.82
2022-07-29T08:40:34.711Z,26.21
2022-07-29T08:43:09.757Z,25.98
2022-07-29T08:45:48.503Z,26.63
2022-07-29T08:48:23.936Z,26.59
2022-07-29T08:50:59.295Z,25.40
2022-07-29T08:53:32.955Z,25.24
2022-07-29T08:56:07.452Z,25.43
2022-07-29T08:58:38.593Z,25.46
2022-07-29T09:01:12.333Z,26.14
2022-07-29T09:03:43.574Z,26.00
2022-07-29T09:06:17.584Z,25.95
2022-07-29T09:08:50.750Z,26.31
2022-07-29T09:11:21.176Z,25.92
2022-07-29T09:13:51.249Z,25.53
2022-07-29T09:16:43.862Z,25.76
2022-07-29T09:19:23.826Z,26.02
2022-07-29T09:22:04.085Z,25.99
2022-07-29T09:24:44.531Z,26.42
2022-07-29T09:27:23.701Z,26.45
2022-07-29T09:30:02.921Z,26.32
2022-07-29T09:32:34.145Z,26.40
2022-07-29T09:35:23.806Z,26.65
2022-07-29T09:37:55.118Z,26.19
2022-07-29T09:40:30.840Z,26.01
2022-07-29T09:43:01.170Z,26.11
2022-07-29T09:45:33.357Z,26.59
2022-07-29T09:48:16.557Z,26.75
2022-07-29T09:50:50.681Z,26.95
2022-07-29T09:53:36.879Z,27.79
2022-07-29T09:56:11.763Z,27.96
2022-07-29T09:58:41.972Z,27.52
2022-07-29T10:01:12.548Z,27.43
2022-07-29T10:03:55.723Z,26.60
2022-07-29T10:06:25.866Z,26.98
2022-07-29T10:08:56.267Z,27.73
2022-07-29T10:11:48.351Z,26.94
2022-07-29T10:14:19.432Z,26.40
2022-07-29T10:16:49.573Z,25.61
2022-07-29T10:19:20.830Z,25.50
2022-07-29T10:21:55.071Z,26.14
2022-07-29T10:24:30.364Z,26.47
2022-07-29T10:27:04.712Z,27.12
2022-07-29T10:29:36.919Z,25.29
2022-07-29T10:32:33.745Z,25.39
2022-07-29T10:35:23.750Z,25.59
2022-07-29T10:38:16.245Z,24.31
2022-07-29T10:41:09.295Z,22.25
2022-07-29T10:43:47.495Z,23.21
2022-07-29T10:46:22.177Z,22.94
2022-07-29T10:49:11.923Z,23.66
2022-07-29T10:52:08.342Z,23.62
2022-07-29T10:54:51.754Z,22.93
2022-07-29T10:57:53.139Z,21.90
2022-07-29T11:00:35.810Z,20.37
2022-07-29T11:03:10.476Z,20.56
2022-07-29T11:06:01.959Z,21.04
2022-07-29T11:08:43.189Z,21.97
2022-07-29T11:11:37.994Z,22.50
2022-07-29T11:14:10.376Z,22.08
2022-07-29T11:17:06.936Z,22.12
2022-07-29T11:19:44.775Z,19.89
2022-07-29T11:22:36.245Z,21.62
2022-07-29T11:25:50.156Z,20.93
2022-07-29T11:31:09.333Z,21.06
2022-07-29T11:33:56.083Z,21.90
2022-07-29T11:39:36.222Z,22.72
2022-07-29T11:42:37.417Z,22.73
2022-07-29T11:45:41.259Z,23.07
2022-07-29T11:48:29.607Z,23.01
2022-07-29T11:51:01.179Z,24.32
2022-07-29T11:53:32.701Z,24.05
2022-07-29T11:56:04.847Z,24.14
2022-07-29T11:58:35.540Z,22.55
2022-07-29T12:01:08.968Z,22.42
2022-07-29T12:03:39.330Z,21.68
2022-07-29T12:06:18.643Z,21.23
2022-07-29T12:07:01.386Z,20.66
2022-07-29T12:08:51.464Z,21.37
2022-07-29T12:11:23.531Z,21.50
2022-07-29T12:13:55.274Z,21.07
2022-07-29T12:16:29.704Z,19.65
2022-07-29T12:19:02.294Z,20.09
2022-07-29T12:21:53.611Z,19.95
2022-07-29T12:24:27.712Z,21.34
2022-07-29T12:26:59.329Z,21.92
2022-07-29T12:29:34.760Z,21.81
2022-07-29T12:32:14.429Z,21.34
2022-07-29T12:34:45.494Z,21.71
2022-07-29T12:37:18.626Z,22.57
2022-07-29T12:39:49.262Z,22.97
2022-07-29T12:42:19.875Z,23.24
2022-07-29T12:44:52.769Z,23.40
2022-07-29T12:47:23.188Z,21.39
2022-07-29T12:50:12.159Z,22.51
2022-07-29T12:52:45.067Z,22.67
2022-07-29T12:55:15.699Z,23.50
2022-07-29T12:57:51.718Z,23.38
2022-07-29T13:00:27.270Z,23.55
2022-07-29T13:02:59.946Z,24.59
2022-07-29T13:05:48.876Z,24.44
2022-07-29T13:08:22.750Z,23.96
2022-07-29T13:10:53.262Z,23.44
2022-07-29T13:13:23.422Z,23.93
2022-07-29T13:16:10.155Z,23.82
2022-07-29T13:18:42.360Z,24.29
2022-07-29T13:21:16.958Z,24.04
2022-07-29T13:23:51.720Z,24.07
2022-07-29T13:26:21.788Z,23.92
2022-07-29T13:28:52.081Z,24.00
2022-07-29T13:31:23.188Z,23.28
2022-07-29T13:33:53.521Z,23.58
2022-07-29T13:36:24.722Z,23.43
2022-07-29T13:38:57.540Z,23.53
2022-07-29T13:41:27.842Z,23.26
2022-07-29T13:44:06.200Z,23.65
2022-07-29T13:46:39.613Z,24.12
2022-07-29T13:49:11.774Z,23.99
2022-07-29T13:51:42.283Z,24.04
2022-07-29T13:54:15.030Z,23.93
2022-07-29T13:56:46.293Z,23.49
2022-07-29T13:59:16.822Z,23.06
2022-07-29T14:01:47.318Z,22.91
2022-07-29T14:04:17.535Z,22.85
2022-07-29T14:06:47.878Z,23.13
2022-07-29T14:09:22.661Z,23.66
2022-07-29T14:11:53.953Z,24.19
2022-07-29T14:14:24.674Z,23.73
2022-07-29T14:16:54.869Z,23.45
2022-07-29T14:19:25.149Z,23.21
2022-07-29T14:21:55.546Z,23.27
2022-07-29T14:24:32.370Z,23.34
2022-07-29T14:27:02.744Z,22.79
2022-07-29T14:29:36.974Z,22.94
2022-07-29T14:32:10.135Z,23.16
2022-07-29T14:34:41.270Z,23.90
2022-07-29T14:37:16.094Z,23.77
2022-07-29T14:39:49.384Z,24.05
2022-07-29T14:42:19.572Z,24.12
2022-07-29T14:44:50.434Z,24.51
2022-07-29T14:47:20.657Z,24.06
2022-07-29T14:49:50.949Z,24.18
2022-07-29T14:52:21.124Z,24.12
2022-07-29T14:54:53.829Z,24.16
2022-07-29T14:57:24.037Z,24.39
2022-07-29T14:59:55.299Z,23.88
2022-07-29T15:02:40.003Z,23.81
2022-07-29T15:05:16.144Z,24.77
2022-07-29T15:07:46.438Z,24.31
2022-07-29T15:10:19.530Z,24.28
2022-07-29T15:12:51.063Z,23.67
2022-07-29T15:15:21.213Z,24.01
2022-07-29T15:17:51.920Z,23.87
2022-07-29T15:20:22.560Z,24.46
2022-07-29T15:22:52.680Z,24.36
2022-07-29T15:25:25.533Z,24.57
2022-07-29T15:28:01.734Z,24.16
2022-07-29T15:30:34.623Z,24.05
2022-07-29T15:33:06.121Z,24.50
2022-07-29T15:35:40.527Z,24.80
2022-07-29T15:38:11.670Z,24.72
2022-07-29T15:40:45.526Z,24.83
2022-07-29T15:43:15.700Z,24.85
2022-07-29T15:46:08.140Z,24.99
2022-07-29T15:48:42.288Z,24.86
2022-07-29T15:51:12.525Z,25.25
2022-07-29T15:53:42.675Z,25.21
2022-07-29T15:56:15.453Z,25.08
2022-07-29T15:58:45.636Z,25.39
2022-07-29T16:01:15.932Z,25.48
2022-07-29T16:03:48.974Z,25.57
2022-07-29T16:06:19.453Z,25.58
2022-07-29T16:08:49.830Z,25.45
2022-07-29T16:11:23.104Z,25.19
2022-07-29T16:13:53.239Z,24.82
2022-07-29T16:16:23.727Z,25.13
2022-07-29T16:18:54.250Z,24.69
2022-07-29T16:21:27.571Z,25.19
2022-07-29T16:23:58.371Z,25.46
2022-07-29T16:26:31.251Z,25.27
2022-07-29T16:29:02.279Z,26.04
2022-07-29T16:31:32.590Z,25.64
2022-07-29T16:34:03.841Z,25.39
2022-07-29T16:36:36.031Z,25.69
2022-07-29T16:39:07.133Z,25.44
2022-07-29T16:41:39.923Z,25.26
2022-07-29T16:44:09.995Z,25.42
2022-07-29T16:46:41.424Z,26.10
2022-07-29T16:49:11.767Z,25.82
2022-07-29T16:51:45.260Z,25.57
2022-07-29T16:54:15.536Z,25.65
2022-07-29T16:56:48.291Z,25.83
2022-07-29T16:59:18.612Z,25.58
2022-07-29T17:01:48.869Z,25.81
2022-07-29T17:04:19.102Z,25.68
2022-07-29T17:06:49.804Z,25.88
2022-07-29T17:09:21.146Z,26.19
2022-07-29T17:11:56.150Z,26.51
2022-07-29T17:14:27.844Z,26.62
2022-07-29T17:17:01.099Z,26.74
2022-07-29T17:19:34.160Z,27.25
2022-07-29T17:22:11.788Z,26.77
2022-07-29T17:24:45.909Z,27.09
2022-07-29T17:27:19.023Z,26.97
2022-07-29T17:29:49.141Z,26.39
2022-07-29T17:32:19.465Z,26.72
2022-07-29T17:34:49.621Z,26.91
2022-07-29T17:37:19.810Z,26.91
2022-07-29T17:39:50.942Z,27.03
2022-07-29T17:42:23.774Z,27.41
2022-07-29T17:44:53.990Z,27.88
2022-07-29T17:47:24.115Z,28.20
2022-07-29T17:49:54.224Z,28.82
2022-07-29T17:52:24.385Z,29.04
2022-07-29T17:54:54.583Z,29.15
2022-07-29T17:57:27.525Z,29.20
2022-07-29T17:59:57.644Z,29.60
2022-07-29T18:02:28.496Z,29.78
2022-07-29T18:04:58.793Z,30.67
2022-07-29T18:07:28.968Z,31.30
2022-07-29T18:10:00.743Z,31.44
2022-07-29T18:12:33.817Z,31.63
2022-07-29T18:15:03.905Z,32.50
2022-07-29T18:17:48.437Z,32.99
2022-07-29T18:20:24.391Z,32.89
2022-07-29T18:22:54.622Z,32.90
2022-07-29T18:25:25.816Z,33.83
2022-07-29T18:28:00.640Z,33.59
2022-07-29T18:30:33.903Z,33.30
2022-07-29T18:33:24.292Z,33.68
2022-07-29T18:36:04.227Z,33.27
2022-07-29T18:38:41.850Z,33.63
2022-07-29T18:41:12.035Z,33.88
2022-07-29T18:43:45.612Z,34.37
2022-07-29T18:46:15.801Z,34.23
2022-07-29T18:48:46.072Z,34.58
2022-07-29T18:51:16.246Z,34.32
2022-07-29T18:53:46.616Z,34.93
2022-07-29T18:56:16.705Z,35.29
2022-07-29T18:58:49.686Z,34.68
2022-07-29T19:01:19.982Z,34.41
2022-07-29T19:03:50.275Z,35.02
2022-07-29T19:06:25.317Z,34.61
2022-07-29T19:08:56.621Z,34.48
2022-07-29T19:11:27.026Z,34.39
2022-07-29T19:13:59.754Z,34.21
2022-07-29T19:16:32.327Z,34.66
2022-07-29T19:19:03.666Z,34.52
2022-07-29T19:21:33.793Z,34.94
2022-07-29T19:24:06.756Z,35.19
2022-07-29T19:26:44.110Z,36.13
2022-07-29T19:29:17.554Z,36.23
2022-07-29T19:31:47.567Z,36.84
2022-07-29T19:34:17.788Z,37.58
2022-07-29T19:36:47.991Z,37.88
2022-07-29T19:39:18.321Z,37.98
2022-07-29T19:42:03.508Z,38.44
2022-07-29T19:44:36.519Z,38.43
2022-07-29T19:47:06.782Z,38.62
2022-07-29T19:49:42.122Z,39.05
2022-07-29T19:52:12.621Z,39.31
2022-07-29T19:54:42.840Z,39.84
2022-07-29T19:57:12.954Z,40.09
2022-07-29T19:59:47.222Z,39.80
2022-07-29T20:02:17.474Z,40.10
2022-07-29T20:04:47.807Z,40.25
2022-07-29T20:07:18.066Z,40.37
2022-07-29T20:09:49.481Z,40.64
2022-07-29T20:12:19.646Z,40.80
2022-07-29T20:14:53.516Z,40.91
2022-07-29T20:17:23.602Z,40.87
2022-07-29T20:19:56.464Z,41.14
2022-07-29T20:22:26.588Z,41.53
2022-07-29T20:24:56.966Z,41.82
2022-07-29T20:27:27.053Z,41.98
2022-07-29T20:29:59.946Z,42.24
2022-07-29T20:32:30.234Z,42.31
2022-07-29T20:35:00.408Z,42.69
2022-07-29T20:37:30.627Z,42.90
2022-07-29T20:40:00.758Z,42.87
2022-07-29T20:42:30.918Z,42.82
2022-07-29T20:45:08.352Z,42.92
2022-07-29T20:47:39.130Z,43.39
2022-07-29T20:50:10.481Z,43.12
2022-07-29T20:52:41.568Z,43.83
2022-07-29T20:55:12.450Z,43.78
2022-07-29T20:57:43.177Z,43.66
2022-07-29T21:00:17.021Z,43.28
2022-07-29T21:02:47.561Z,43.41
2022-07-29T21:05:17.874Z,43.58
2022-07-29T21:07:48.093Z,43.00
2022-07-29T21:10:18.529Z,43.48
2022-07-29T21:12:49.681Z,43.68
2022-07-29T21:15:24.013Z,43.56
2022-07-29T21:18:00.729Z,43.65
2022-07-29T21:20:31.851Z,43.76
2022-07-29T21:23:02.011Z,43.37
2022-07-29T21:25:34.443Z,43.63
2022-07-29T21:28:17.557Z,43.99
2022-07-29T21:30:50.378Z,44.63
2022-07-29T21:33:20.579Z,44.71
2022-07-29T21:38:41.924Z,45.41
2022-07-29T21:41:14.917Z,45.17
2022-07-29T21:43:46.229Z,44.93
2022-07-29T21:46:20.804Z,44.93
2022-07-29T21:48:54.914Z,45.36
2022-07-29T21:51:25.202Z,45.28
2022-07-29T21:53:55.356Z,45.36
2022-07-29T21:56:27.968Z,45.46
2022-07-29T21:58:59.009Z,45.68
2022-07-29T22:01:39.039Z,46.07
2022-07-29T22:04:09.862Z,46.14
2022-07-29T22:06:40.040Z,46.19
2022-07-29T22:09:10.373Z,47.15
2022-07-29T22:11:40.552Z,47.77
2022-07-29T22:14:10.741Z,47.98
2022-07-29T22:16:43.743Z,47.99
2022-07-29T22:19:13.964Z,48.46
2022-07-29T22:21:44.913Z,48.67
2022-07-29T22:24:15.001Z,49.35
2022-07-29T22:26:45.157Z,49.74
2022-07-29T22:29:17.744Z,50.34
2022-07-29T22:31:50.571Z,50.74
2022-07-29T22:34:20.669Z,50.48
2022-07-29T22:36:50.850Z,49.99
2022-07-29T22:39:21.057Z,50.34
2022-07-29T22:41:51.325Z,50.26
2022-07-29T22:44:21.594Z,50.05
2022-07-29T22:49:24.291Z,49.65
2022-07-29T22:51:54.619Z,49.99
2022-07-29T22:54:24.693Z,49.96
2022-07-29T22:56:55.327Z,49.58
2022-07-29T22:59:25.410Z,49.46
2022-07-29T23:01:58.267Z,49.39
2022-07-29T23:04:28.426Z,49.23
2022-07-29T23:06:58.725Z,49.03
2022-07-29T23:09:30.091Z,49.11
2022-07-29T23:12:00.198Z,49.02
2022-07-29T23:14:30.276Z,49.02
2022-07-29T23:17:03.505Z,48.56
2022-07-29T23:19:34.009Z,48.42
2022-07-29T23:22:04.178Z,48.72
2022-07-29T23:24:34.294Z,48.01
2022-07-29T23:27:04.468Z,48.37
2022-07-29T23:29:36.920Z,47.70
2022-07-29T23:32:10.277Z,48.02
2022-07-29T23:34:40.317Z,47.90
2022-07-29T23:37:10.502Z,47.70
2022-07-29T23:39:40.837Z,47.97
2022-07-29T23:42:10.950Z,48.10
2022-07-29T23:44:41.101Z,48.08
2022-07-29T23:47:13.885Z,47.71
2022-07-29T23:49:44.030Z,48.04
2022-07-29T23:52:14.229Z,47.58
2022-07-29T23:54:44.394Z,47.85
2022-07-29T23:57:14.567Z,47.83
2022-07-29T23:59:44.778Z,47.81
